createdAt,value
2022-10-12T00:00:57.269Z,5.16
2022-10-12T00:01:57.407Z,5.25
2022-10-12T00:02:57.309Z,5.34
2022-10-12T00:03:57.386Z,5.48
2022-10-12T00:04:58.092Z,5.56
2022-10-12T00:05:57.252Z,5.60
2022-10-12T00:06:57.491Z,5.66
2022-10-12T00:07:57.509Z,5.71
2022-10-12T00:08:57.432Z,5.75
2022-10-12T00:09:58.232Z,5.82
2022-10-12T00:10:58.040Z,5.86
2022-10-12T00:11:57.169Z,5.93
2022-10-12T00:12:57.388Z,6.01
2022-10-12T00:13:57.489Z,6.04
2022-10-12T00:14:57.437Z,6.10
2022-10-12T00:15:57.393Z,6.11
2022-10-12T00:16:57.049Z,6.14
2022-10-12T00:17:57.025Z,6.16
2022-10-12T00:18:57.012Z,6.16
2022-10-12T00:19:57.054Z,6.18
2022-10-12T00:20:57.023Z,6.14
2022-10-12T00:21:56.993Z,6.16
2022-10-12T00:22:56.962Z,6.16
2022-10-12T00:23:57.793Z,6.21
2022-10-12T00:24:56.959Z,6.21
2022-10-12T00:25:56.961Z,6.22
2022-10-12T00:26:56.952Z,6.29
2022-10-12T00:27:56.903Z,6.30
2022-10-12T00:28:57.018Z,6.33
2022-10-12T00:29:56.908Z,6.36
2022-10-12T00:30:56.863Z,6.43
2022-10-12T00:31:56.883Z,6.48
2022-10-12T00:32:56.835Z,6.54
2022-10-12T00:33:56.845Z,6.65
2022-10-12T00:34:56.773Z,6.71
2022-10-12T00:35:56.817Z,6.76
2022-10-12T00:36:56.767Z,6.81
2022-10-12T00:37:56.788Z,6.84
2022-10-12T00:38:56.747Z,6.87
2022-10-12T00:39:56.736Z,6.87
2022-10-12T00:40:57.665Z,6.90
2022-10-12T00:41:56.858Z,6.90
2022-10-12T00:42:56.676Z,6.90
2022-10-12T00:43:58.485Z,6.89
2022-10-12T00:44:56.663Z,6.89
2022-10-12T00:45:56.665Z,6.89
2022-10-12T00:46:56.615Z,6.87
2022-10-12T00:47:56.624Z,6.86
2022-10-12T00:48:56.843Z,6.84
2022-10-12T00:49:56.585Z,6.84
2022-10-12T00:50:56.595Z,6.83
2022-10-12T00:51:56.559Z,6.83
2022-10-12T00:52:56.587Z,6.81
2022-10-12T00:53:56.527Z,6.83
2022-10-12T00:54:56.496Z,6.83
2022-10-12T00:55:56.498Z,6.83
2022-10-12T00:56:56.476Z,6.84
2022-10-12T00:57:56.476Z,6.84
2022-10-12T00:58:56.934Z,6.87
2022-10-12T00:59:56.439Z,6.89
2022-10-12T01:00:56.428Z,6.87
2022-10-12T01:01:56.458Z,6.90
2022-10-12T01:02:56.676Z,6.90
2022-10-12T01:03:56.367Z,6.94
2022-10-12T01:04:56.361Z,6.95
2022-10-12T01:05:56.339Z,6.94
2022-10-12T01:06:56.328Z,6.97
2022-10-12T01:07:56.339Z,6.98
2022-10-12T01:08:56.302Z,6.98
2022-10-12T01:09:56.288Z,6.98
2022-10-12T01:10:56.300Z,6.99
2022-10-12T01:11:56.300Z,7.01
2022-10-12T01:12:56.279Z,7.02
2022-10-12T01:13:56.253Z,7.04
2022-10-12T01:14:56.209Z,7.05
2022-10-12T01:15:56.219Z,7.08
2022-10-12T01:16:56.191Z,7.08
2022-10-12T01:17:56.188Z,7.08
2022-10-12T01:18:56.162Z,7.12
2022-10-12T01:19:57.331Z,7.09
2022-10-12T01:20:56.131Z,7.12
2022-10-12T01:21:56.120Z,7.13
2022-10-12T01:22:56.102Z,7.15
2022-10-12T01:23:56.097Z,7.17
2022-10-12T01:24:56.089Z,7.17
2022-10-12T01:25:56.081Z,7.19
2022-10-12T01:26:56.064Z,7.20
2022-10-12T01:27:56.050Z,7.24
2022-10-12T01:28:56.070Z,7.22
2022-10-12T01:29:56.001Z,7.24
2022-10-12T01:30:56.481Z,7.26
2022-10-12T01:31:56.852Z,7.27
2022-10-12T01:32:55.991Z,7.29
2022-10-12T01:33:56.895Z,7.31
2022-10-12T01:34:55.942Z,7.32
2022-10-12T01:35:55.949Z,7.34
2022-10-12T01:36:55.950Z,7.34
2022-10-12T01:37:55.907Z,7.37
2022-10-12T01:38:55.923Z,7.38
2022-10-12T01:39:55.869Z,7.41
2022-10-12T01:40:55.858Z,7.41
2022-10-12T01:41:56.712Z,7.44
2022-10-12T01:42:55.844Z,7.44
2022-10-12T01:43:55.826Z,7.49
2022-10-12T01:44:55.804Z,7.47
2022-10-12T01:45:55.814Z,7.50
2022-10-12T01:46:55.785Z,7.52
2022-10-12T01:47:55.775Z,7.50
2022-10-12T01:48:55.776Z,7.52
2022-10-12T01:49:55.726Z,7.53
2022-10-12T01:50:55.725Z,7.56
2022-10-12T01:51:55.705Z,7.58
2022-10-12T01:52:56.681Z,7.59
2022-10-12T01:53:55.710Z,7.59
2022-10-12T01:54:56.626Z,7.60
2022-10-12T01:55:55.666Z,7.60
2022-10-12T01:56:56.547Z,7.62
2022-10-12T01:57:56.454Z,7.62
2022-10-12T01:58:56.626Z,7.63
2022-10-12T01:59:56.518Z,7.66
2022-10-12T02:00:56.264Z,7.66
2022-10-12T02:01:55.599Z,7.66
2022-10-12T02:02:56.518Z,7.69
2022-10-12T02:03:55.538Z,7.71
2022-10-12T02:04:56.559Z,7.72
2022-10-12T02:05:56.505Z,7.74
2022-10-12T02:06:56.358Z,7.74
2022-10-12T02:07:55.578Z,7.75
2022-10-12T02:08:55.495Z,7.75
2022-10-12T02:09:56.328Z,7.75
2022-10-12T02:10:56.231Z,7.77
2022-10-12T02:11:55.449Z,7.77
2022-10-12T02:12:55.428Z,7.77
2022-10-12T02:13:56.201Z,7.77
2022-10-12T02:14:56.360Z,7.77
2022-10-12T02:15:56.263Z,7.78
2022-10-12T02:16:55.370Z,7.77
2022-10-12T02:17:55.362Z,7.77
2022-10-12T02:18:56.233Z,7.78
2022-10-12T02:19:55.333Z,7.78
2022-10-12T02:20:56.291Z,7.79
2022-10-12T02:21:55.290Z,7.79
2022-10-12T02:22:56.101Z,7.79
2022-10-12T02:23:56.261Z,7.81
2022-10-12T02:24:55.288Z,7.82
2022-10-12T02:25:55.262Z,7.82
2022-10-12T02:26:55.263Z,7.82
2022-10-12T02:27:56.133Z,7.82
2022-10-12T02:28:56.103Z,7.85
2022-10-12T02:29:56.202Z,7.85
2022-10-12T02:30:55.185Z,7.85
2022-10-12T02:31:56.042Z,7.89
2022-10-12T02:32:56.205Z,7.89
2022-10-12T02:33:56.073Z,7.90
2022-10-12T02:34:55.976Z,7.92
2022-10-12T02:35:55.912Z,7.92
2022-10-12T02:36:55.103Z,7.94
2022-10-12T02:37:55.943Z,7.96
2022-10-12T02:38:55.844Z,7.97
2022-10-12T02:39:55.153Z,7.97
2022-10-12T02:40:55.045Z,8.00
2022-10-12T02:41:55.185Z,8.02
2022-10-12T02:43:11.503Z,8.03
2022-10-12T02:43:55.993Z,8.03
2022-10-12T02:44:57.457Z,8.07
2022-10-12T02:45:54.974Z,8.07
2022-10-12T02:46:54.976Z,8.07
2022-10-12T02:47:55.760Z,8.10
2022-10-12T02:48:55.906Z,8.12
2022-10-12T02:49:55.815Z,8.14
2022-10-12T02:50:54.916Z,8.18
2022-10-12T02:51:54.898Z,8.21
2022-10-12T02:52:54.936Z,8.22
2022-10-12T02:53:54.847Z,8.25
2022-10-12T02:54:54.896Z,8.28
2022-10-12T02:55:54.836Z,8.28
2022-10-12T02:56:54.830Z,8.29
2022-10-12T02:57:54.807Z,8.29
2022-10-12T02:58:55.717Z,8.28
2022-10-12T02:59:54.777Z,8.29
2022-10-12T03:00:55.554Z,8.29
2022-10-12T03:01:56.168Z,8.28
2022-10-12T03:02:55.620Z,8.28
2022-10-12T03:03:55.518Z,8.30
2022-10-12T03:04:54.740Z,8.32
2022-10-12T03:05:54.709Z,8.33
2022-10-12T03:06:54.681Z,8.33
2022-10-12T03:07:54.650Z,8.36
2022-10-12T03:08:55.527Z,8.40
2022-10-12T03:09:54.631Z,8.37
2022-10-12T03:10:54.635Z,8.39
2022-10-12T03:11:55.501Z,8.39
2022-10-12T03:12:54.595Z,8.40
2022-10-12T03:13:54.588Z,8.40
2022-10-12T03:14:55.461Z,8.42
2022-10-12T03:15:54.589Z,8.44
2022-10-12T03:16:54.572Z,8.44
2022-10-12T03:17:55.435Z,8.44
2022-10-12T03:18:54.523Z,8.44
2022-10-12T03:19:54.513Z,8.47
2022-10-12T03:20:54.532Z,8.47
2022-10-12T03:21:54.603Z,8.45
2022-10-12T03:22:55.466Z,8.45
2022-10-12T03:23:55.894Z,8.45
2022-10-12T03:24:55.277Z,8.45
2022-10-12T03:25:54.614Z,8.45
2022-10-12T03:26:54.392Z,8.45
2022-10-12T03:27:54.616Z,8.48
2022-10-12T03:28:54.608Z,8.50
2022-10-12T03:29:54.554Z,8.51
2022-10-12T03:30:54.342Z,8.51
2022-10-12T03:31:54.506Z,8.51
2022-10-12T03:32:54.554Z,8.50
2022-10-12T03:33:54.616Z,8.51
2022-10-12T03:34:54.594Z,8.51
2022-10-12T03:35:54.564Z,8.53
2022-10-12T03:36:54.624Z,8.53
2022-10-12T03:37:54.224Z,8.53
2022-10-12T03:38:54.268Z,8.51
2022-10-12T03:39:54.245Z,8.51
2022-10-12T03:40:54.195Z,8.51
2022-10-12T03:41:54.157Z,8.51
2022-10-12T03:42:54.327Z,8.51
2022-10-12T03:43:54.496Z,8.50
2022-10-12T03:44:54.136Z,8.48
2022-10-12T03:45:54.159Z,8.47
2022-10-12T03:46:54.096Z,8.44
2022-10-12T03:47:54.167Z,8.44
2022-10-12T03:48:54.150Z,8.47
2022-10-12T03:49:54.119Z,8.47
2022-10-12T03:50:54.273Z,8.47
2022-10-12T03:51:54.134Z,8.47
2022-10-12T03:52:54.020Z,8.45
2022-10-12T03:53:53.998Z,8.47
2022-10-12T03:54:54.009Z,8.47
2022-10-12T03:55:53.977Z,8.45
2022-10-12T03:56:53.959Z,8.47
2022-10-12T03:57:54.138Z,8.45
2022-10-12T03:58:53.929Z,8.50
2022-10-12T03:59:54.077Z,8.48
2022-10-12T04:00:54.189Z,8.51
2022-10-12T04:01:53.945Z,8.50
2022-10-12T04:02:53.868Z,8.50
2022-10-12T04:03:53.850Z,8.48
2022-10-12T04:04:53.850Z,8.50
2022-10-12T04:05:53.851Z,8.50
2022-10-12T04:06:53.849Z,8.50
2022-10-12T04:07:53.830Z,8.48
2022-10-12T04:08:53.791Z,8.51
2022-10-12T04:09:53.871Z,8.51
2022-10-12T04:10:53.744Z,8.50
2022-10-12T04:11:53.751Z,8.50
2022-10-12T04:12:53.801Z,8.50
2022-10-12T04:13:53.725Z,8.51
2022-10-12T04:14:53.705Z,8.51
2022-10-12T04:15:53.697Z,8.53
2022-10-12T04:16:53.749Z,8.53
2022-10-12T04:17:53.713Z,8.54
2022-10-12T04:18:53.644Z,8.54
2022-10-12T04:19:53.607Z,8.53
2022-10-12T04:20:53.621Z,8.51
2022-10-12T04:21:54.425Z,8.50
2022-10-12T04:22:53.602Z,8.48
2022-10-12T04:23:53.575Z,8.47
2022-10-12T04:24:53.567Z,8.48
2022-10-12T04:25:53.515Z,8.45
2022-10-12T04:26:53.546Z,8.42
2022-10-12T04:27:53.539Z,8.39
2022-10-12T04:28:53.526Z,8.35
2022-10-12T04:29:53.496Z,8.30
2022-10-12T04:30:53.458Z,8.30
2022-10-12T04:31:53.465Z,8.28
2022-10-12T04:32:53.436Z,8.28
2022-10-12T04:33:53.448Z,8.26
2022-10-12T04:34:53.407Z,8.26
2022-10-12T04:35:53.398Z,8.22
2022-10-12T04:36:53.377Z,8.21
2022-10-12T04:37:53.366Z,8.20
2022-10-12T04:38:57.015Z,8.20
2022-10-12T04:39:54.626Z,8.20
2022-10-12T04:40:53.340Z,8.21
2022-10-12T04:41:53.323Z,8.21
2022-10-12T04:42:53.300Z,8.28
2022-10-12T04:43:53.289Z,8.30
2022-10-12T04:44:53.344Z,8.32
2022-10-12T04:45:53.267Z,8.35
2022-10-12T04:46:53.369Z,8.39
2022-10-12T04:47:53.212Z,8.37
2022-10-12T04:48:53.241Z,8.37
2022-10-12T04:49:53.254Z,8.37
2022-10-12T04:50:54.676Z,8.39
2022-10-12T04:51:53.173Z,8.39
2022-10-12T04:52:53.165Z,8.40
2022-10-12T04:53:53.146Z,8.40
2022-10-12T04:54:53.530Z,8.40
2022-10-12T04:55:53.184Z,8.39
2022-10-12T04:56:53.204Z,8.37
2022-10-12T04:57:53.123Z,8.37
2022-10-12T04:58:53.063Z,8.37
2022-10-12T04:59:53.036Z,8.37
2022-10-12T05:00:53.043Z,8.37
2022-10-12T05:01:54.605Z,8.36
2022-10-12T05:02:53.014Z,8.32
2022-10-12T05:03:52.987Z,8.30
2022-10-12T05:04:52.987Z,8.21
2022-10-12T05:05:53.795Z,8.15
2022-10-12T05:06:53.534Z,8.04
2022-10-12T05:07:52.978Z,7.96
2022-10-12T05:08:52.929Z,7.84
2022-10-12T05:09:52.917Z,7.74
2022-10-12T05:10:52.887Z,7.67
2022-10-12T05:11:53.729Z,7.62
2022-10-12T05:12:52.888Z,7.62
2022-10-12T05:13:52.879Z,7.62
2022-10-12T05:14:52.859Z,7.63
2022-10-12T05:15:52.832Z,7.58
2022-10-12T05:16:52.845Z,7.50
2022-10-12T05:17:52.937Z,7.40
2022-10-12T05:18:52.862Z,7.32
2022-10-12T05:19:52.764Z,7.24
2022-10-12T05:20:56.992Z,7.15
2022-10-12T05:21:53.769Z,7.05
2022-10-12T05:22:53.676Z,6.98
2022-10-12T05:23:52.708Z,6.94
2022-10-12T05:24:53.967Z,6.84
2022-10-12T05:25:53.647Z,6.76
2022-10-12T05:26:53.550Z,6.65
2022-10-12T05:27:53.444Z,6.54
2022-10-12T05:28:52.698Z,6.41
2022-10-12T05:29:53.513Z,6.35
2022-10-12T05:30:52.672Z,6.32
2022-10-12T05:31:52.619Z,6.30
2022-10-12T05:32:53.492Z,6.30
2022-10-12T05:33:53.381Z,6.29
2022-10-12T05:34:53.544Z,6.26
2022-10-12T05:35:56.376Z,6.26
2022-10-12T05:36:52.554Z,6.29
2022-10-12T05:37:52.616Z,6.26
2022-10-12T05:38:53.412Z,6.25
2022-10-12T05:39:52.872Z,6.13
2022-10-12T05:40:57.680Z,6.03
2022-10-12T05:41:53.527Z,5.98
2022-10-12T05:42:53.375Z,5.93
2022-10-12T05:43:53.540Z,5.86
2022-10-12T05:44:53.503Z,5.77
2022-10-12T05:45:53.304Z,5.70
2022-10-12T05:46:53.413Z,5.60
2022-10-12T05:47:53.317Z,5.57
2022-10-12T05:48:52.404Z,5.59
2022-10-12T05:49:53.858Z,5.63
2022-10-12T05:50:53.287Z,5.66
2022-10-12T05:51:53.187Z,5.66
2022-10-12T05:52:52.385Z,5.57
2022-10-12T05:53:52.623Z,5.53
2022-10-12T05:54:53.158Z,5.50
2022-10-12T05:55:52.345Z,5.45
2022-10-12T05:56:52.287Z,5.40
2022-10-12T05:57:53.129Z,5.32
2022-10-12T05:58:53.040Z,5.25
2022-10-12T05:59:52.269Z,5.19
2022-10-12T06:00:53.733Z,5.12
2022-10-12T06:01:53.102Z,5.13
2022-10-12T06:02:53.168Z,5.19
2022-10-12T06:03:53.070Z,5.27
2022-10-12T06:04:52.967Z,5.31
2022-10-12T06:05:52.630Z,5.34
2022-10-12T06:06:53.056Z,5.37
2022-10-12T06:07:52.942Z,5.41
2022-10-12T06:08:53.097Z,5.45
2022-10-12T06:09:52.101Z,5.46
2022-10-12T06:10:52.972Z,5.50
2022-10-12T06:11:52.106Z,5.53
2022-10-12T06:12:52.343Z,5.56
2022-10-12T06:13:52.900Z,5.59
2022-10-12T06:14:52.337Z,5.63
2022-10-12T06:15:52.039Z,5.67
2022-10-12T06:16:54.580Z,5.66
2022-10-12T06:17:52.018Z,5.64
2022-10-12T06:18:52.039Z,5.70
2022-10-12T06:19:51.949Z,5.71
2022-10-12T06:21:04.016Z,5.74
2022-10-12T06:21:52.931Z,5.74
2022-10-12T06:22:53.391Z,5.78
2022-10-12T06:23:52.270Z,5.81
2022-10-12T06:24:51.959Z,5.83
2022-10-12T06:25:52.745Z,5.89
2022-10-12T06:26:52.642Z,5.92
2022-10-12T06:27:51.883Z,5.92
2022-10-12T06:28:52.040Z,5.93
2022-10-12T06:29:52.615Z,5.96
2022-10-12T06:30:51.852Z,5.96
2022-10-12T06:31:52.832Z,6.01
2022-10-12T06:32:51.811Z,6.03
2022-10-12T06:33:51.773Z,6.03
2022-10-12T06:34:51.764Z,6.04
2022-10-12T06:35:51.742Z,6.09
2022-10-12T06:36:52.714Z,6.10
2022-10-12T06:37:51.787Z,6.13
2022-10-12T06:38:52.521Z,6.16
2022-10-12T06:39:51.685Z,6.19
2022-10-12T06:40:52.600Z,6.21
2022-10-12T06:41:51.675Z,6.21
2022-10-12T06:42:56.186Z,6.21
2022-10-12T06:43:53.575Z,6.19
2022-10-12T06:44:51.676Z,6.21
2022-10-12T06:45:53.040Z,6.22
2022-10-12T06:46:51.701Z,6.25
2022-10-12T06:47:51.726Z,6.26
2022-10-12T06:48:52.373Z,6.26
2022-10-12T06:49:51.627Z,6.26
2022-10-12T06:50:51.525Z,6.26
2022-10-12T06:51:51.568Z,6.28
2022-10-12T06:52:51.562Z,6.38
2022-10-12T06:53:51.759Z,6.44
2022-10-12T06:54:51.563Z,6.53
2022-10-12T06:55:51.544Z,6.65
2022-10-12T06:56:55.432Z,6.77
2022-10-12T06:57:53.310Z,6.90
2022-10-12T06:58:51.674Z,7.01
2022-10-12T06:59:51.421Z,7.09
2022-10-12T07:00:51.439Z,7.17
2022-10-12T07:01:51.708Z,7.26
2022-10-12T07:02:51.500Z,7.32
2022-10-12T07:03:51.695Z,7.38
2022-10-12T07:04:51.355Z,7.38
2022-10-12T07:05:51.313Z,7.38
2022-10-12T07:06:51.469Z,7.35
2022-10-12T07:07:51.333Z,7.37
2022-10-12T07:08:51.293Z,7.38
2022-10-12T07:09:51.272Z,7.44
2022-10-12T07:10:52.547Z,7.50
2022-10-12T07:11:51.215Z,7.58
2022-10-12T07:12:51.242Z,7.62
2022-10-12T07:13:51.253Z,7.69
2022-10-12T07:14:51.336Z,7.69
2022-10-12T07:15:51.351Z,7.66
2022-10-12T07:16:55.149Z,7.63
2022-10-12T07:17:51.182Z,7.62
2022-10-12T07:18:51.292Z,7.63
2022-10-12T07:19:51.245Z,7.69
2022-10-12T07:20:51.117Z,7.75
2022-10-12T07:21:51.102Z,7.82
2022-10-12T07:22:51.073Z,7.89
2022-10-12T07:23:51.064Z,7.93
2022-10-12T07:24:51.058Z,7.97
2022-10-12T07:25:51.370Z,8.10
2022-10-12T07:26:50.994Z,8.21
2022-10-12T07:27:50.995Z,8.28
2022-10-12T07:28:51.096Z,8.30
2022-10-12T07:29:51.227Z,8.30
2022-10-12T07:30:50.981Z,8.29
2022-10-12T07:31:52.140Z,8.29
2022-10-12T07:32:50.945Z,8.29
2022-10-12T07:33:51.306Z,8.30
2022-10-12T07:34:50.906Z,8.32
2022-10-12T07:36:12.380Z,8.30
2022-10-12T07:36:59.655Z,8.30
2022-10-12T07:37:51.891Z,8.35
2022-10-12T07:38:50.858Z,8.35
2022-10-12T07:39:50.861Z,8.37
2022-10-12T07:40:50.826Z,8.40
2022-10-12T07:41:50.828Z,8.47
2022-10-12T07:43:14.687Z,8.48
2022-10-12T07:43:51.841Z,8.48
2022-10-12T07:44:50.770Z,8.51
2022-10-12T07:45:50.857Z,8.58
2022-10-12T07:46:50.795Z,8.65
2022-10-12T07:47:50.739Z,8.72
2022-10-12T07:48:50.827Z,8.76
2022-10-12T07:49:50.698Z,8.78
2022-10-12T07:50:50.748Z,8.79
2022-10-12T07:51:50.659Z,8.81
2022-10-12T07:52:50.671Z,8.81
2022-10-12T07:53:50.675Z,8.81
2022-10-12T07:54:50.769Z,8.84
2022-10-12T07:55:50.653Z,8.87
2022-10-12T07:56:50.619Z,8.88
2022-10-12T07:57:51.619Z,8.88
2022-10-12T07:58:50.630Z,8.88
2022-10-12T07:59:50.572Z,8.88
2022-10-12T08:00:50.566Z,8.90
2022-10-12T08:01:50.616Z,8.88
2022-10-12T08:02:50.533Z,8.90
2022-10-12T08:03:50.512Z,8.93
2022-10-12T08:04:50.589Z,8.94
2022-10-12T08:05:50.543Z,8.99
2022-10-12T08:06:50.492Z,9.01
2022-10-12T08:07:50.568Z,9.02
2022-10-12T08:08:50.453Z,9.09
2022-10-12T08:09:50.453Z,9.09
2022-10-12T08:10:50.407Z,9.13
2022-10-12T08:11:50.404Z,9.15
2022-10-12T08:12:52.191Z,9.13
2022-10-12T08:13:50.374Z,9.15
2022-10-12T08:14:50.803Z,9.15
2022-10-12T08:15:50.361Z,9.16
2022-10-12T08:16:50.315Z,9.23
2022-10-12T08:17:50.393Z,9.23
2022-10-12T08:18:50.335Z,9.30
2022-10-12T08:19:50.326Z,9.34
2022-10-12T08:20:50.830Z,9.38
2022-10-12T08:21:50.255Z,9.42
2022-10-12T08:22:50.317Z,9.49
2022-10-12T08:23:50.576Z,9.56
2022-10-12T08:24:50.223Z,9.57
2022-10-12T08:25:51.208Z,9.57
2022-10-12T08:26:51.118Z,9.61
2022-10-12T08:27:50.180Z,9.67
2022-10-12T08:28:50.262Z,9.68
2022-10-12T08:29:51.138Z,9.70
2022-10-12T08:30:50.145Z,9.70
2022-10-12T08:31:50.128Z,9.68
2022-10-12T08:32:50.155Z,9.68
2022-10-12T08:33:50.126Z,9.71
2022-10-12T08:34:50.069Z,9.75
2022-10-12T08:35:50.082Z,9.76
2022-10-12T08:36:50.049Z,9.78
2022-10-12T08:37:50.055Z,9.81
2022-10-12T08:38:50.041Z,9.88
2022-10-12T08:39:50.027Z,9.93
2022-10-12T08:40:50.043Z,9.97
2022-10-12T08:41:50.008Z,9.99
2022-10-12T08:42:50.049Z,9.99
2022-10-12T08:43:49.942Z,9.99
2022-10-12T08:44:49.961Z,9.96
2022-10-12T08:45:50.052Z,9.96
2022-10-12T08:46:49.906Z,9.96
2022-10-12T08:47:49.873Z,9.96
2022-10-12T08:48:49.872Z,9.97
2022-10-12T08:49:50.267Z,10.00
2022-10-12T08:50:49.896Z,10.03
2022-10-12T08:51:49.992Z,10.06
2022-10-12T08:52:50.697Z,10.06
2022-10-12T08:53:50.823Z,10.10
2022-10-12T08:54:49.792Z,10.14
2022-10-12T08:55:49.783Z,10.15
2022-10-12T08:56:50.595Z,10.18
2022-10-12T08:57:50.709Z,10.22
2022-10-12T08:58:49.753Z,10.22
2022-10-12T08:59:50.528Z,10.21
2022-10-12T09:00:49.727Z,10.24
2022-10-12T09:01:50.628Z,10.26
2022-10-12T09:02:49.675Z,10.26
2022-10-12T09:03:49.675Z,10.32
2022-10-12T09:04:49.665Z,10.33
2022-10-12T09:05:49.675Z,10.32
2022-10-12T09:06:50.595Z,10.34
2022-10-12T09:07:50.599Z,10.37
2022-10-12T09:08:50.408Z,10.40
2022-10-12T09:09:51.065Z,10.43
2022-10-12T09:10:50.477Z,10.43
2022-10-12T09:11:49.583Z,10.44
2022-10-12T09:12:50.546Z,10.46
2022-10-12T09:13:49.558Z,10.52
2022-10-12T09:14:49.529Z,10.53
2022-10-12T09:15:50.511Z,10.58
2022-10-12T09:16:50.407Z,10.59
2022-10-12T09:17:50.335Z,10.62
2022-10-12T09:18:50.508Z,10.65
2022-10-12T09:19:50.407Z,10.65
2022-10-12T09:20:50.279Z,10.63
2022-10-12T09:21:50.185Z,10.65
2022-10-12T09:22:50.382Z,10.70
2022-10-12T09:23:50.250Z,10.71
2022-10-12T09:24:49.400Z,10.71
2022-10-12T09:25:49.870Z,10.76
2022-10-12T09:26:50.209Z,10.76
2022-10-12T09:27:50.162Z,10.77
2022-10-12T09:28:50.343Z,10.77
2022-10-12T09:29:49.301Z,10.78
2022-10-12T09:30:50.081Z,10.81
2022-10-12T09:31:50.243Z,10.86
2022-10-12T09:32:49.682Z,10.89
2022-10-12T09:33:50.052Z,10.92
2022-10-12T09:34:50.234Z,10.96
2022-10-12T09:35:50.125Z,10.99
2022-10-12T09:36:50.673Z,10.98
2022-10-12T09:37:50.182Z,10.99
2022-10-12T09:38:49.212Z,10.99
2022-10-12T09:39:49.192Z,11.02
2022-10-12T09:40:50.155Z,11.02
2022-10-12T09:41:50.612Z,10.99
2022-10-12T09:42:49.964Z,10.99
2022-10-12T09:43:50.123Z,11.01
2022-10-12T09:44:50.026Z,11.02
2022-10-12T09:45:49.460Z,11.06
2022-10-12T09:46:50.084Z,11.09
2022-10-12T09:47:50.025Z,11.14
2022-10-12T09:48:49.894Z,11.17
2022-10-12T09:49:49.798Z,11.21
2022-10-12T09:50:50.015Z,11.27
2022-10-12T09:51:49.857Z,11.32
2022-10-12T09:52:49.797Z,11.35
2022-10-12T09:53:53.012Z,11.39
2022-10-12T09:54:50.021Z,11.46
2022-10-12T09:55:49.735Z,11.52
2022-10-12T09:56:49.899Z,11.54
2022-10-12T09:57:48.967Z,11.62
2022-10-12T09:58:48.887Z,11.65
2022-10-12T09:59:48.998Z,11.70
2022-10-12T10:00:49.769Z,11.75
2022-10-12T10:01:48.870Z,11.83
2022-10-12T10:02:48.870Z,11.89
2022-10-12T10:03:48.857Z,11.96
2022-10-12T10:04:48.852Z,12.01
2022-10-12T10:05:49.799Z,12.05
2022-10-12T10:06:48.794Z,12.09
2022-10-12T10:07:49.608Z,12.13
2022-10-12T10:08:48.820Z,12.15
2022-10-12T10:09:48.779Z,12.19
2022-10-12T10:10:48.770Z,12.20
2022-10-12T10:11:48.731Z,12.20
2022-10-12T10:12:48.773Z,12.20
2022-10-12T10:13:49.542Z,12.21
2022-10-12T10:14:49.700Z,12.27
2022-10-12T10:15:48.730Z,12.29
2022-10-12T10:16:48.661Z,12.30
2022-10-12T10:17:48.822Z,12.42
2022-10-12T10:18:49.572Z,12.51
2022-10-12T10:19:49.487Z,12.60
2022-10-12T10:20:48.633Z,12.64
2022-10-12T10:21:48.694Z,12.70
2022-10-12T10:22:48.665Z,12.70
2022-10-12T10:23:48.623Z,12.75
2022-10-12T10:24:48.721Z,12.79
2022-10-12T10:25:48.663Z,12.81
2022-10-12T10:26:48.625Z,12.82
2022-10-12T10:27:48.720Z,12.85
2022-10-12T10:28:48.529Z,12.88
2022-10-12T10:29:55.866Z,12.89
2022-10-12T10:30:50.240Z,12.95
2022-10-12T10:31:48.606Z,12.96
2022-10-12T10:32:48.638Z,12.99
2022-10-12T10:33:48.423Z,13.00
2022-10-12T10:34:48.386Z,13.03
2022-10-12T10:35:50.153Z,13.09
2022-10-12T10:36:48.426Z,13.15
2022-10-12T10:37:48.364Z,13.18
2022-10-12T10:38:48.579Z,13.24
2022-10-12T10:39:48.318Z,13.29
2022-10-12T10:40:48.337Z,13.36
2022-10-12T10:41:48.296Z,13.40
2022-10-12T10:42:49.059Z,13.43
2022-10-12T10:43:48.403Z,13.46
2022-10-12T10:44:48.377Z,13.51
2022-10-12T10:45:48.264Z,13.58
2022-10-12T10:46:48.266Z,13.62
2022-10-12T10:47:48.317Z,13.71
2022-10-12T10:48:48.331Z,13.77
2022-10-12T10:49:49.612Z,13.83
2022-10-12T10:50:48.165Z,13.89
2022-10-12T10:51:48.141Z,13.95
2022-10-12T10:52:48.411Z,13.96
2022-10-12T10:53:48.381Z,14.02
2022-10-12T10:54:48.102Z,14.07
2022-10-12T10:55:48.647Z,14.14
2022-10-12T10:56:49.058Z,14.19
2022-10-12T10:57:49.016Z,14.27
2022-10-12T10:58:48.114Z,14.35
2022-10-12T10:59:49.873Z,14.42
2022-10-12T11:00:49.440Z,14.49
2022-10-12T11:01:50.119Z,14.57
2022-10-12T11:02:48.634Z,14.65
2022-10-12T11:03:51.411Z,14.74
2022-10-12T11:04:48.336Z,14.78
2022-10-12T11:05:48.475Z,14.84
2022-10-12T11:06:48.019Z,14.93
2022-10-12T11:07:47.914Z,15.03
2022-10-12T11:08:49.096Z,15.11
2022-10-12T11:09:48.038Z,15.20
2022-10-12T11:10:49.178Z,15.31
2022-10-12T11:11:47.889Z,15.51
2022-10-12T11:12:47.911Z,15.66
2022-10-12T11:13:47.960Z,15.76
2022-10-12T11:14:48.307Z,15.86
2022-10-12T11:15:47.819Z,15.97
2022-10-12T11:16:47.808Z,16.11
2022-10-12T11:17:47.790Z,16.25
2022-10-12T11:18:47.824Z,16.30
2022-10-12T11:19:47.840Z,16.53
2022-10-12T11:20:47.989Z,16.80
2022-10-12T11:21:47.841Z,17.20
2022-10-12T11:22:47.871Z,17.55
2022-10-12T11:23:47.741Z,18.07
2022-10-12T11:24:47.881Z,18.61
2022-10-12T11:25:49.351Z,19.15
2022-10-12T11:26:47.697Z,19.69
2022-10-12T11:27:52.793Z,20.21
2022-10-12T11:29:19.127Z,20.65
2022-10-12T11:29:58.128Z,21.11
2022-10-12T11:30:50.486Z,21.56
2022-10-12T11:31:48.427Z,21.97
2022-10-12T11:32:48.468Z,22.19
2022-10-12T11:33:47.630Z,22.43
2022-10-12T11:34:47.557Z,22.65
2022-10-12T11:35:48.390Z,22.87
2022-10-12T11:37:07.492Z,23.04
2022-10-12T11:37:48.587Z,23.24
2022-10-12T11:38:48.536Z,23.24
2022-10-12T11:39:47.521Z,23.35
2022-10-12T11:41:05.467Z,23.39
2022-10-12T11:42:21.344Z,23.42
2022-10-12T11:42:48.666Z,23.50
2022-10-12T11:43:47.556Z,23.71
2022-10-12T11:44:47.646Z,23.97
2022-10-12T11:45:47.418Z,24.14
2022-10-12T11:46:47.585Z,24.23
2022-10-12T11:47:47.531Z,24.24
2022-10-12T11:48:47.669Z,24.16
2022-10-12T11:49:47.743Z,24.05
2022-10-12T11:50:48.382Z,24.01
2022-10-12T11:51:47.548Z,24.07
2022-10-12T11:52:47.413Z,23.90
2022-10-12T11:53:47.281Z,24.08
2022-10-12T11:54:47.271Z,24.14
2022-10-12T11:55:47.296Z,23.97
2022-10-12T11:56:47.244Z,24.08
2022-10-12T11:57:47.243Z,24.17
2022-10-12T11:59:02.529Z,24.27
2022-10-12T11:59:49.109Z,24.38
2022-10-12T12:00:47.326Z,24.59
2022-10-12T12:01:47.221Z,24.76
2022-10-12T12:02:47.290Z,24.94
2022-10-12T12:03:47.332Z,25.02
2022-10-12T12:04:47.265Z,24.97
2022-10-12T12:05:47.243Z,24.90
2022-10-12T12:06:47.218Z,24.85
2022-10-12T12:07:47.188Z,24.39
2022-10-12T12:08:47.170Z,23.49
2022-10-12T12:09:50.621Z,23.38
2022-10-12T12:10:47.171Z,23.39
2022-10-12T12:11:47.072Z,23.70
2022-10-12T12:12:47.082Z,24.10
2022-10-12T12:13:48.151Z,24.37
2022-10-12T12:14:47.388Z,23.38
2022-10-12T12:15:47.334Z,23.22
2022-10-12T12:16:47.661Z,23.58
2022-10-12T12:17:47.765Z,23.62
2022-10-12T12:18:47.173Z,23.40
2022-10-12T12:19:48.413Z,23.20
2022-10-12T12:20:48.231Z,22.96
2022-10-12T12:21:46.950Z,23.14
2022-10-12T12:22:46.924Z,23.45
2022-10-12T12:23:46.933Z,23.80
2022-10-12T12:24:47.260Z,23.14
2022-10-12T12:25:46.907Z,22.52
2022-10-12T12:26:47.745Z,21.60
2022-10-12T12:28:13.660Z,20.71
2022-10-12T12:36:02.466Z,20.64
2022-10-12T12:37:03.767Z,20.09
2022-10-12T12:38:02.237Z,19.88
2022-10-12T12:39:01.887Z,20.25
2022-10-12T12:40:01.931Z,20.38
2022-10-12T12:41:01.279Z,19.88
2022-10-12T12:42:02.723Z,19.47
2022-10-12T12:43:04.823Z,19.06
2022-10-12T12:44:23.618Z,18.67
2022-10-12T12:45:02.770Z,18.70
2022-10-12T12:46:01.112Z,19.94
2022-10-12T12:47:01.859Z,20.90
2022-10-12T12:48:01.097Z,21.74
2022-10-12T12:49:01.151Z,22.57
2022-10-12T12:50:01.153Z,23.17
2022-10-12T12:51:01.713Z,23.32
2022-10-12T12:52:01.083Z,23.68
2022-10-12T12:53:01.495Z,23.85
2022-10-12T12:54:01.461Z,23.70
2022-10-12T12:55:01.352Z,22.82
2022-10-12T12:56:01.372Z,22.78
2022-10-12T12:57:01.136Z,23.20
2022-10-12T12:58:01.383Z,23.43
2022-10-12T12:59:01.153Z,23.80
2022-10-12T13:00:00.939Z,24.20
2022-10-12T13:01:01.225Z,24.49
2022-10-12T13:02:06.060Z,24.32
2022-10-12T13:03:01.183Z,24.19
2022-10-12T13:04:01.025Z,24.14
2022-10-12T13:05:01.415Z,24.13
2022-10-12T13:06:00.970Z,24.39
2022-10-12T13:07:01.077Z,24.56
2022-10-12T13:08:04.155Z,24.63
2022-10-12T13:09:01.084Z,24.75
2022-10-12T13:10:00.901Z,24.82
2022-10-12T13:11:01.276Z,24.90
2022-10-12T13:12:01.149Z,25.09
2022-10-12T13:13:00.750Z,24.82
2022-10-12T13:14:05.383Z,24.45
2022-10-12T13:15:01.522Z,24.56
2022-10-12T13:16:00.758Z,24.45
2022-10-12T13:18:01.732Z,24.63